Time;durP1;ratioP1;P1;durP2;ratioP2;P2;SDS_P1;SDS_P2;PMS_P1;PMS_P2;Temp;Humidity;BMP_temperature;BMP_pressure;BME280_temperature;BME280_humidity;BME280_pressure;Samples;Min_cycle;Max_cycle;Signal;HPM_P1;HPM_P2
2022/06/25 08:48:49;;;;;;;2.65;2.00;;;20.40;99.90;;;;;;5111205;27;20607;-76
2022/06/25 08:51:18;;;;;;;3.80;2.40;;;20.40;99.90;;;;;;5111233;28;20200;-76
2022/06/25 08:53:43;;;;;;;5.95;2.47;;;20.30;99.90;;;;;;5111200;28;20657;-76
2022/06/25 08:56:09;;;;;;;2.55;2.28;;;20.40;99.90;;;;;;5111123;28;20254;-76
2022/06/25 08:58:35;;;;;;;1.80;1.70;;;20.50;99.90;;;;;;5111084;28;20249;-77
2022/06/25 09:01:01;;;;;;;2.60;1.95;;;20.60;99.90;;;;;;5110892;28;20163;-77
2022/06/25 09:03:27;;;;;;;5.47;1.80;;;20.70;99.90;;;;;;5109669;28;20178;-76
2022/06/25 09:05:53;;;;;;;2.88;2.03;;;20.80;99.90;;;;;;5111014;28;20207;-77
2022/06/25 09:08:18;;;;;;;2.45;2.25;;;20.80;99.90;;;;;;5109544;28;20209;-76
2022/06/25 09:10:46;;;;;;;3.58;2.00;;;20.90;99.90;;;;;;5110936;28;20163;-76
2022/06/25 09:13:13;;;;;;;2.58;2.40;;;20.90;99.90;;;;;;5110878;28;20174;-76
2022/06/25 09:15:45;;;;;;;6.35;1.92;;;21.00;99.90;;;;;;5110748;28;20175;-76
2022/06/25 09:18:13;;;;;;;2.08;1.80;;;21.10;99.90;;;;;;5110634;28;20174;-76
2022/06/25 09:20:59;;;;;;;2.72;1.70;;;21.30;99.90;;;;;;5110692;28;20166;-77
2022/06/25 09:23:26;;;;;;;1.70;1.60;;;21.50;99.90;;;;;;5109398;28;20178;-77
2022/06/25 09:26:07;;;;;;;2.03;1.65;;;21.70;99.90;;;;;;5110683;28;20299;-76
2022/06/25 09:28:35;;;;;;;2.50;1.90;;;21.80;99.90;;;;;;5110477;28;20247;-76
2022/06/25 09:31:02;;;;;;;2.72;1.70;;;22.00;99.90;;;;;;5110361;28;20178;-76
2022/06/25 09:33:32;;;;;;;9.20;2.70;;;22.10;99.90;;;;;;5110487;28;20654;-76
2022/06/25 09:35:58;;;;;;;6.40;2.00;;;22.10;99.90;;;;;;5109124;28;20173;-77
2022/06/25 09:38:24;;;;;;;5.13;2.08;;;22.10;99.90;;;;;;5110378;28;20166;-76
2022/06/25 09:40:54;;;;;;;5.57;1.85;;;22.20;99.90;;;;;;5110297;28;20170;-77
2022/06/25 09:43:28;;;;;;;13.63;2.20;;;22.10;99.90;;;;;;5110280;28;20190;-77
2022/06/25 09:45:55;;;;;;;7.53;1.92;;;22.00;99.90;;;;;;5110251;28;20175;-77
2022/06/25 09:48:29;;;;;;;11.68;2.38;;;21.90;99.90;;;;;;5108581;28;20667;-76
2022/06/25 09:51:29;;;;;;;2.33;1.80;;;21.90;99.90;;;;;;5110010;28;20190;-76
2022/06/25 09:54:00;;;;;;;4.50;2.00;;;22.20;99.90;;;;;;5097428;28;20175;-77
2022/06/25 09:56:31;;;;;;;5.30;2.22;;;22.30;99.90;;;;;;5110018;28;20165;-77
2022/06/25 09:58:57;;;;;;;5.50;1.83;;;22.50;99.90;;;;;;5103233;28;20163;-76
2022/06/25 10:01:28;;;;;;;7.53;1.80;;;22.70;99.90;;;;;;5096409;28;20617;-77
2022/06/25 10:03:55;;;;;;;2.90;2.40;;;22.90;99.90;;;;;;5096275;28;20175;-77
2022/06/25 10:06:23;;;;;;;3.28;1.65;;;23.00;99.90;;;;;;5096182;28;20175;-77
2022/06/25 10:08:54;;;;;;;1.77;1.67;;;23.00;99.90;;;;;;5096374;28;20525;-77
2022/06/25 10:11:22;;;;;;;4.32;1.60;;;22.90;99.90;;;;;;5096159;28;20163;-76
2022/06/25 10:13:50;;;;;;;2.55;1.70;;;23.00;99.90;;;;;;5096104;28;20612;-76
2022/06/25 10:16:16;;;;;;;2.75;2.10;;;23.10;99.90;;;;;;5095959;28;20159;-77
2022/06/25 10:18:43;;;;;;;2.63;1.55;;;23.10;99.90;;;;;;5095958;28;20164;-76
2022/06/25 10:21:09;;;;;;;2.17;1.90;;;23.10;99.90;;;;;;5094659;28;20185;-76
2022/06/25 10:23:36;;;;;;;2.00;1.80;;;23.10;99.90;;;;;;5095823;28;20182;-76
2022/06/25 10:26:02;;;;;;;1.70;1.60;;;23.20;99.90;;;;;;5094567;28;20179;-76
2022/06/25 10:28:28;;;;;;;5.25;2.00;;;23.30;99.90;;;;;;5095737;28;20225;-76
2022/06/25 10:30:57;;;;;;;1.77;1.67;;;23.50;99.90;;;;;;5095736;28;20250;-76
2022/06/25 10:33:26;;;;;;;2.88;1.70;;;23.70;99.90;;;;;;5095687;28;20621;-76
2022/06/25 10:35:58;;;;;;;4.97;1.85;;;23.70;99.90;;;;;;5094351;28;20175;-76
2022/06/25 10:38:26;;;;;;;2.53;1.73;;;23.80;99.90;;;;;;5094348;28;20171;-76
2022/06/25 10:42:58;;;;;;;4.53;1.40;;;23.80;99.90;;;;;;5095585;28;20178;-76
2022/06/25 10:43:48;;;;;;;3.17;1.35;;;23.90;99.90;;;;;;5095351;28;20663;-76
2022/06/25 10:46:26;;;;;;;4.35;1.77;;;24.00;99.90;;;;;;5094360;28;20534;-76
2022/06/25 10:48:58;;;;;;;1.95;1.48;;;24.20;99.90;;;;;;5094054;28;20183;-76
2022/06/25 10:51:45;;;;;;;6.25;1.80;;;24.30;99.90;;;;;;5095356;28;20544;-76
2022/06/25 10:54:34;;;;;;;2.72;1.85;;;24.30;99.90;;;;;;5095378;28;20167;-76
2022/06/25 10:57:00;;;;;;;1.77;1.38;;;24.50;99.90;;;;;;5094693;28;20261;-76
2022/06/25 10:59:32;;;;;;;1.85;1.38;;;24.30;99.90;;;;;;5093898;28;20167;-76
2022/06/25 11:02:00;;;;;;;3.13;1.40;;;24.40;99.90;;;;;;5095072;28;20293;-76
2022/06/25 11:04:27;;;;;;;1.95;1.35;;;24.50;99.90;;;;;;5095078;28;20194;-76
2022/06/25 11:07:06;;;;;;;3.03;2.08;;;24.60;99.90;;;;;;5095003;28;20187;-76
2022/06/25 11:09:32;;;;;;;4.00;1.80;;;24.70;99.90;;;;;;5094841;28;20159;-76
2022/06/25 11:11:59;;;;;;;2.33;1.60;;;24.70;99.90;;;;;;5093946;28;20182;-76
2022/06/25 11:14:25;;;;;;;2.50;1.50;;;24.60;99.90;;;;;;5094887;28;20241;-76
2022/06/25 11:16:52;;;;;;;4.80;1.70;;;24.50;99.90;;;;;;5094846;28;20227;-76
2022/06/25 11:19:20;;;;;;;6.13;1.45;;;24.30;99.90;;;;;;5094822;28;20175;-76
2022/06/25 11:21:47;;;;;;;2.08;1.95;;;24.10;99.90;;;;;;5094781;28;20199;-76
2022/06/25 11:24:17;;;;;;;4.97;1.75;;;23.90;99.90;;;;;;5093469;28;20178;-76
2022/06/25 11:29:40;;;;;;;3.38;1.65;;;24.00;99.90;;;;;;5094714;28;20193;-76
2022/06/25 11:32:07;;;;;;;3.50;1.60;;;24.20;99.90;;;;;;5093281;28;20178;-76
2022/06/25 11:34:33;;;;;;;3.42;1.50;;;24.50;99.90;;;;;;5094511;28;20205;-76
2022/06/25 11:37:06;;;;;;;1.73;1.58;;;24.60;99.90;;;;;;5094470;28;20182;-76
2022/06/25 11:39:33;;;;;;;2.55;1.45;;;24.60;99.90;;;;;;5094384;28;20174;-78
2022/06/25 11:42:00;;;;;;;2.90;1.42;;;24.60;99.90;;;;;;5094392;28;20232;-77
2022/06/25 11:44:26;;;;;;;2.05;1.95;;;24.30;99.90;;;;;;5093043;28;20232;-77
2022/06/25 11:46:52;;;;;;;1.70;1.60;;;24.30;99.90;;;;;;5092782;28;20219;-77
2022/06/25 11:49:20;;;;;;;2.25;1.58;;;24.40;99.90;;;;;;5094029;28;20202;-77
2022/06/25 11:51:48;;;;;;;2.28;1.40;;;24.30;99.90;;;;;;5094225;28;20163;-76
2022/06/25 11:54:16;;;;;;;4.75;1.67;;;24.30;99.90;;;;;;5092864;28;20304;-76
2022/06/25 11:56:54;;;;;;;1.70;1.60;;;24.30;99.90;;;;;;5092867;28;20174;-77
2022/06/25 11:59:28;;;;;;;2.03;1.40;;;24.30;99.90;;;;;;5094139;28;20155;-76
2022/06/25 12:01:55;;;;;;;1.65;1.55;;;24.40;99.90;;;;;;5094499;28;20578;-76
2022/06/25 12:04:21;;;;;;;1.42;1.42;;;24.70;99.90;;;;;;5093945;28;20635;-76
2022/06/25 12:06:47;;;;;;;2.95;2.20;;;24.80;99.90;;;;;;5093898;28;20187;-76
2022/06/25 12:09:18;;;;;;;1.77;1.55;;;25.10;99.90;;;;;;5093933;28;20167;-77
2022/06/25 12:11:51;;;;;;;14.15;2.22;;;25.00;99.90;;;;;;5092605;28;20174;-76
2022/06/25 12:14:26;;;;;;;2.65;1.70;;;24.80;99.90;;;;;;5092640;28;20554;-76
2022/06/25 12:16:53;;;;;;;3.00;1.40;;;24.70;99.90;;;;;;5093754;28;20178;-76
2022/06/25 12:19:19;;;;;;;5.63;1.75;;;24.70;99.90;;;;;;5093787;28;20192;-76
2022/06/25 12:21:45;;;;;;;3.03;1.67;;;24.80;99.90;;;;;;5093504;28;20167;-77
2022/06/25 12:24:16;;;;;;;1.60;1.50;;;24.80;99.90;;;;;;5093724;28;20521;-77
2022/06/25 12:26:51;;;;;;;4.38;1.80;;;25.00;99.90;;;;;;5093589;28;20216;-77
2022/06/25 12:29:23;;;;;;;5.50;2.15;;;25.10;99.90;;;;;;5092388;28;20662;-77
2022/06/25 12:31:56;;;;;;;3.20;1.38;;;25.20;99.90;;;;;;5093583;28;20170;-77
2022/06/25 12:34:24;;;;;;;2.22;1.95;;;25.20;99.90;;;;;;5093564;28;20167;-77
2022/06/25 12:36:50;;;;;;;1.90;1.52;;;25.20;99.90;;;;;;5092239;28;20198;-77
2022/06/25 12:39:37;;;;;;;6.63;1.73;;;25.20;99.90;;;;;;5093555;28;20236;-77
2022/06/25 12:42:05;;;;;;;3.13;1.50;;;25.20;99.90;;;;;;5093851;28;20184;-77
2022/06/25 12:44:33;;;;;;;2.97;1.40;;;25.20;99.90;;;;;;5093365;28;20171;-77
2022/06/25 12:47:07;;;;;;;3.00;1.52;;;25.20;99.90;;;;;;5093239;28;20718;-77
2022/06/25 12:49:59;;;;;;;2.75;1.38;;;25.20;99.90;;;;;;5091999;28;20191;-77
2022/06/25 12:52:38;;;;;;;2.33;1.70;;;25.30;99.90;;;;;;5090907;28;20182;-77
2022/06/25 12:55:06;;;;;;;2.08;1.85;;;25.30;99.90;;;;;;5093271;28;20246;-77
2022/06/25 12:57:35;;;;;;;2.60;1.50;;;25.20;99.90;;;;;;5092049;28;20266;-77
2022/06/25 13:00:04;;;;;;;3.65;1.60;;;25.20;99.90;;;;;;5093311;28;20179;-77
2022/06/25 13:02:31;;;;;;;2.25;1.40;;;25.40;99.90;;;;;;5093179;28;20171;-76
2022/06/25 13:04:57;;;;;;;2.58;1.83;;;25.50;99.90;;;;;;5093296;28;20175;-77
2022/06/25 13:07:22;;;;;;;1.58;1.50;;;25.80;99.90;;;;;;5091860;28;20198;-77
2022/06/25 13:09:49;;;;;;;4.07;1.77;;;25.90;99.90;;;;;;5091921;28;20175;-77
2022/06/25 13:12:15;;;;;;;1.77;1.48;;;26.30;99.90;;;;;;5093231;28;20164;-77
2022/06/25 13:14:41;;;;;;;2.13;1.40;;;26.70;99.90;;;;;;5091939;28;20171;-77
2022/06/25 13:17:08;;;;;;;2.75;1.35;;;27.10;99.90;;;;;;5093135;28;20526;-77
2022/06/25 13:19:34;;;;;;;2.35;1.52;;;27.30;99.90;;;;;;5091831;28;20168;-77
2022/06/25 13:22:02;;;;;;;1.92;1.58;;;27.30;99.90;;;;;;5093081;28;20167;-77
2022/06/25 13:24:28;;;;;;;1.90;1.65;;;27.00;99.90;;;;;;5093062;28;20175;-77
2022/06/25 13:26:55;;;;;;;1.70;1.60;;;26.80;99.90;;;;;;5092938;28;20210;-77
2022/06/25 13:29:21;;;;;;;1.85;1.75;;;26.60;99.90;;;;;;5093012;28;20163;-77
2022/06/25 13:31:47;;;;;;;3.80;1.40;;;26.50;99.90;;;;;;5091991;28;20589;-76
2022/06/25 13:34:13;;;;;;;3.63;1.30;;;26.40;99.90;;;;;;5094501;28;20202;-76
2022/06/25 13:36:38;;;;;;;1.80;1.55;;;26.20;99.90;;;;;;5096849;28;20182;-77
2022/06/25 13:39:05;;;;;;;2.63;1.40;;;26.10;99.90;;;;;;5095484;28;20175;-77
2022/06/25 13:41:32;;;;;;;3.17;1.50;;;26.10;99.90;;;;;;5096740;28;20250;-76
2022/06/25 13:43:59;;;;;;;2.22;1.38;;;26.10;99.90;;;;;;5096541;28;20170;-77
2022/06/25 13:46:26;;;;;;;3.72;1.50;;;26.20;99.90;;;;;;5095059;28;20221;-77
2022/06/25 13:48:52;;;;;;;4.75;1.13;;;26.50;99.90;;;;;;5096405;28;20198;-77
2022/06/25 13:51:18;;;;;;;1.65;1.30;;;26.80;99.90;;;;;;5096515;28;20163;-77
2022/06/25 13:53:44;;;;;;;3.15;1.40;;;27.10;99.90;;;;;;5096501;28;20199;-77
2022/06/25 13:56:09;;;;;;;1.35;1.15;;;27.30;99.90;;;;;;5096458;28;20171;-77
2022/06/25 13:58:35;;;;;;;2.38;1.58;;;27.40;99.90;;;;;;5096411;28;20183;-77
2022/06/25 14:01:01;;;;;;;1.35;1.30;;;27.60;99.90;;;;;;5096264;28;20190;-77
2022/06/25 14:03:27;;;;;;;1.40;1.30;;;27.60;99.90;;;;;;5096316;28;20171;-77
2022/06/25 14:05:54;;;;;;;2.40;1.70;;;27.70;99.90;;;;;;5096316;28;20216;-77
2022/06/25 14:08:20;;;;;;;3.30;1.42;;;27.40;99.90;;;;;;5096160;28;20202;-77
2022/06/25 14:10:46;;;;;;;2.50;1.38;;;27.10;99.90;;;;;;5094917;28;20163;-77
2022/06/25 14:13:14;;;;;;;2.42;1.67;;;26.90;99.90;;;;;;5096123;28;20213;-77
2022/06/25 14:15:39;;;;;;;4.78;1.30;;;26.90;99.90;;;;;;5096038;28;20163;-76
2022/06/25 14:18:05;;;;;;;1.27;1.27;;;26.80;99.90;;;;;;5096253;28;20270;-76
2022/06/25 14:20:31;;;;;;;1.70;1.60;;;26.80;99.90;;;;;;5096046;28;20517;-77
2022/06/25 14:22:57;;;;;;;3.03;2.30;;;26.90;99.90;;;;;;5095979;28;20212;-77
2022/06/25 14:25:24;;;;;;;3.80;1.73;;;27.20;99.90;;;;;;5095904;28;20254;-77
2022/06/25 14:27:51;;;;;;;2.38;1.25;;;27.50;99.90;;;;;;5095798;28;20183;-77
2022/06/25 14:30:17;;;;;;;2.25;1.60;;;27.70;99.90;;;;;;5095806;28;20163;-77
2022/06/25 14:32:43;;;;;;;2.60;1.45;;;27.90;99.90;;;;;;5095818;28;20167;-77
2022/06/25 14:35:10;;;;;;;3.63;1.52;;;27.90;99.90;;;;;;5094481;28;20178;-77
2022/06/25 14:43:05;;;;;;;1.90;1.30;;;28.60;99.90;;;;;;5095850;28;20301;-77
2022/06/25 14:45:30;;;;;;;1.00;1.00;;;29.40;99.90;;;;;;5095378;28;20631;-77
2022/06/25 14:47:56;;;;;;;1.70;1.38;;;29.60;99.90;;;;;;5094039;28;20226;-77
2022/06/25 14:50:22;;;;;;;1.33;1.23;;;29.70;99.90;;;;;;5095383;28;20187;-77
2022/06/25 14:52:48;;;;;;;4.10;1.30;;;29.70;99.90;;;;;;5095368;28;20171;-77
2022/06/25 14:55:14;;;;;;;2.70;1.27;;;29.80;99.90;;;;;;5095291;28;20167;-77
2022/06/25 14:57:40;;;;;;;1.42;1.00;;;29.70;99.90;;;;;;5095276;28;20244;-77
2022/06/25 15:00:08;;;;;;;0.80;0.80;;;29.80;99.90;;;;;;5095247;28;20535;-78
2022/06/25 15:02:34;;;;;;;2.10;1.88;;;29.90;99.90;;;;;;5093954;28;20258;-77
2022/06/25 15:04:59;;;;;;;1.20;1.20;;;30.10;99.90;;;;;;5095155;28;20202;-77
2022/06/25 15:07:27;;;;;;;2.03;1.05;;;30.20;99.90;;;;;;5095121;28;20548;-77
2022/06/25 15:09:53;;;;;;;1.95;1.13;;;30.10;99.90;;;;;;5093726;28;20525;-77
2022/06/25 15:12:19;;;;;;;3.50;1.30;;;29.90;99.90;;;;;;5094969;28;20170;-77
2022/06/25 15:14:45;;;;;;;3.45;1.33;;;29.90;99.90;;;;;;5094943;28;20680;-77
2022/06/25 15:17:10;;;;;;;3.60;1.40;;;29.70;99.90;;;;;;5094862;28;20221;-77
2022/06/25 15:19:36;;;;;;;3.17;1.60;;;29.30;99.90;;;;;;5094851;28;20194;-77
2022/06/25 15:22:01;;;;;;;2.42;1.27;;;28.70;99.90;;;;;;5093478;28;20616;-77
2022/06/25 15:24:27;;;;;;;0.93;0.93;;;28.50;99.90;;;;;;5093398;28;20171;-77
2022/06/25 15:26:53;;;;;;;1.00;1.00;;;28.70;99.90;;;;;;5094486;28;20199;-77
2022/06/25 15:29:18;;;;;;;3.10;1.85;;;29.00;99.90;;;;;;5094657;28;20167;-77
2022/06/25 15:31:44;;;;;;;1.50;1.40;;;29.20;99.90;;;;;;5094611;28;20617;-77
2022/06/25 15:34:10;;;;;;;1.30;1.20;;;29.30;99.90;;;;;;5094560;28;20167;-77
2022/06/25 15:36:35;;;;;;;2.55;1.30;;;29.50;99.90;;;;;;5094567;28;20707;-77
2022/06/25 15:39:01;;;;;;;1.30;1.20;;;29.50;99.90;;;;;;5094436;28;20163;-78
2022/06/25 15:41:26;;;;;;;3.45;1.20;;;29.30;99.90;;;;;;5094482;28;20250;-77
2022/06/25 15:43:52;;;;;;;3.25;1.13;;;28.90;99.90;;;;;;5094393;28;20221;-77
2022/06/25 15:46:18;;;;;;;1.42;1.35;;;28.80;99.90;;;;;;5094390;28;20508;-78
2022/06/25 15:48:43;;;;;;;1.50;1.33;;;28.90;99.90;;;;;;5094092;28;20641;-78
2022/06/25 15:51:10;;;;;;;1.65;1.55;;;29.00;99.90;;;;;;5094258;28;20236;-78
2022/06/25 15:53:35;;;;;;;1.80;1.70;;;29.20;99.90;;;;;;5094232;28;20262;-78
2022/06/25 15:56:01;;;;;;;2.63;1.42;;;29.00;99.90;;;;;;5093951;28;20198;-77
2022/06/25 15:58:27;;;;;;;1.73;1.63;;;28.80;99.90;;;;;;5093942;28;20523;-77
2022/06/25 16:00:52;;;;;;;1.48;1.40;;;28.80;99.90;;;;;;5094434;28;20167;-77
2022/06/25 16:03:18;;;;;;;1.35;1.30;;;29.00;99.90;;;;;;5094077;28;20223;-78
2022/06/25 16:05:44;;;;;;;3.67;1.20;;;29.10;99.90;;;;;;5094083;28;20171;-78
2022/06/25 16:08:09;;;;;;;2.50;1.30;;;29.20;99.90;;;;;;5093838;28;20194;-78
2022/06/25 16:10:35;;;;;;;1.13;1.13;;;29.20;99.90;;;;;;5093969;28;20174;-78
2022/06/25 16:13:01;;;;;;;3.33;1.45;;;29.10;99.90;;;;;;5093880;28;20252;-78
2022/06/25 16:15:27;;;;;;;3.72;1.55;;;28.90;99.90;;;;;;5093827;28;20167;-78
2022/06/25 16:17:52;;;;;;;1.30;1.20;;;28.80;99.90;;;;;;5093867;28;20171;-78
2022/06/25 16:20:18;;;;;;;1.73;1.63;;;28.90;99.90;;;;;;5093849;28;20171;-78
2022/06/25 16:22:44;;;;;;;1.85;1.70;;;28.90;99.90;;;;;;5093656;28;20171;-78
2022/06/25 16:25:10;;;;;;;1.48;1.35;;;28.90;99.90;;;;;;5092469;28;20598;-78
2022/06/25 16:27:36;;;;;;;2.72;1.50;;;28.90;99.90;;;;;;5092412;28;20202;-78
2022/06/25 16:30:03;;;;;;;1.27;1.27;;;28.90;99.90;;;;;;5093693;28;20624;-77
2022/06/25 16:32:29;;;;;;;1.20;1.20;;;28.80;99.90;;;;;;5093653;28;20167;-78
2022/06/25 16:34:55;;;;;;;1.67;1.35;;;28.70;99.90;;;;;;5093582;28;20174;-78
2022/06/25 16:37:20;;;;;;;1.30;1.30;;;28.40;99.90;;;;;;5093531;28;20699;-78
2022/06/25 16:39:46;;;;;;;1.88;1.42;;;28.20;99.90;;;;;;5093567;28;20220;-78
2022/06/25 16:42:12;;;;;;;1.67;1.58;;;28.00;99.90;;;;;;5093492;28;20178;-78
2022/06/25 16:44:37;;;;;;;1.60;1.50;;;27.80;99.90;;;;;;5092220;28;20240;-78
2022/06/25 16:47:03;;;;;;;4.20;3.80;;;27.90;99.90;;;;;;5092968;28;20234;-77
2022/06/25 16:49:29;;;;;;;4.32;2.47;;;28.00;99.90;;;;;;5093358;28;20187;-78
2022/06/25 16:51:57;;;;;;;3.35;1.75;;;28.20;99.90;;;;;;5093413;28;20339;-77
2022/06/25 16:54:25;;;;;;;1.67;1.58;;;28.20;99.90;;;;;;5093404;28;20163;-78
2022/06/25 16:56:52;;;;;;;1.73;1.63;;;28.10;99.90;;;;;;5093281;28;20171;-78
2022/06/25 16:59:19;;;;;;;2.97;1.80;;;28.40;99.90;;;;;;5092096;28;20167;-78
2022/06/25 17:01:46;;;;;;;2.58;1.58;;;28.50;99.90;;;;;;5093335;28;20163;-78
2022/06/25 17:04:12;;;;;;;2.67;1.80;;;28.80;99.90;;;;;;5093324;28;20250;-78
2022/06/25 17:06:38;;;;;;;1.48;1.38;;;28.90;99.90;;;;;;5093154;28;20640;-78
2022/06/25 17:09:04;;;;;;;1.85;1.75;;;28.80;99.90;;;;;;5094479;28;20179;-78
2022/06/25 17:11:31;;;;;;;3.08;1.80;;;28.70;99.90;;;;;;5097341;28;20170;-78
2022/06/25 17:13:56;;;;;;;4.63;1.77;;;28.60;99.90;;;;;;5097360;28;20163;-78
2022/06/25 17:16:22;;;;;;;3.72;1.92;;;28.60;99.90;;;;;;5097266;28;20592;-78
2022/06/25 17:18:49;;;;;;;2.58;2.47;;;28.40;99.90;;;;;;5097212;28;20254;-78
2022/06/25 17:21:14;;;;;;;1.90;1.50;;;28.20;99.90;;;;;;5097126;28;20171;-78
2022/06/25 17:23:41;;;;;;;2.08;1.88;;;28.00;99.90;;;;;;5095855;28;20202;-78
2022/06/25 17:26:08;;;;;;;3.03;1.65;;;27.80;99.90;;;;;;5097016;28;20228;-78
2022/06/25 17:28:34;;;;;;;1.88;1.70;;;27.60;99.90;;;;;;5097099;28;20190;-77
2022/06/25 17:31:01;;;;;;;1.50;1.40;;;27.50;99.90;;;;;;5095648;28;20216;-78
2022/06/25 17:33:28;;;;;;;2.20;1.40;;;27.40;99.90;;;;;;5095574;28;20171;-77
2022/06/25 17:35:53;;;;;;;4.53;1.73;;;27.30;99.90;;;;;;5096824;28;20558;-78
2022/06/25 17:38:19;;;;;;;1.88;1.77;;;27.40;99.90;;;;;;5096811;28;20255;-78
2022/06/25 17:40:45;;;;;;;1.67;1.58;;;27.60;99.90;;;;;;5096812;28;20177;-78
2022/06/25 17:43:10;;;;;;;1.60;1.50;;;27.70;99.90;;;;;;5096812;28;20179;-78
2022/06/25 17:45:36;;;;;;;2.25;1.70;;;27.70;99.90;;;;;;5096768;28;20174;-78
2022/06/25 17:48:03;;;;;;;3.97;1.70;;;27.40;99.90;;;;;;5096331;28;20739;-77
2022/06/25 17:50:29;;;;;;;4.10;1.95;;;27.20;99.90;;;;;;5096830;28;20179;-78
2022/06/25 17:52:54;;;;;;;4.07;1.73;;;26.90;99.90;;;;;;5095333;28;20171;-78
2022/06/25 17:55:20;;;;;;;1.83;1.73;;;26.60;99.90;;;;;;5096522;28;20163;-78
2022/06/25 17:57:46;;;;;;;1.60;1.60;;;26.40;99.90;;;;;;5096581;28;20171;-78
2022/06/25 18:00:15;;;;;;;3.80;1.50;;;26.20;99.90;;;;;;5096430;28;20171;-77
2022/06/25 18:02:42;;;;;;;2.80;1.92;;;25.80;99.90;;;;;;5096310;28;20271;-77
2022/06/25 18:05:08;;;;;;;3.10;2.35;;;25.70;99.90;;;;;;5095028;28;20175;-77
2022/06/25 18:07:34;;;;;;;2.50;2.00;;;25.50;99.90;;;;;;5096198;28;20281;-77
2022/06/25 18:10:00;;;;;;;3.47;2.03;;;25.40;99.90;;;;;;5095033;28;20206;-77
2022/06/25 18:12:26;;;;;;;1.98;1.85;;;25.10;99.90;;;;;;5096183;28;20163;-77
2022/06/25 18:14:52;;;;;;;2.10;1.80;;;24.90;99.90;;;;;;5096145;28;20167;-77
2022/06/25 18:17:18;;;;;;;1.90;1.80;;;24.80;99.90;;;;;;5094762;28;20228;-77
2022/06/25 18:19:43;;;;;;;1.80;1.70;;;24.60;99.90;;;;;;5095591;28;20543;-77
2022/06/25 18:22:09;;;;;;;8.50;7.70;;;24.60;99.90;;;;;;5095916;28;20174;-77
2022/06/25 18:24:35;;;;;;;3.03;2.92;;;24.50;99.90;;;;;;5095999;28;20175;-77
2022/06/25 18:27:01;;;;;;;4.15;2.95;;;24.50;99.90;;;;;;5095807;28;20195;-77
2022/06/25 18:29:27;;;;;;;2.58;2.38;;;24.30;99.90;;;;;;5095893;28;20178;-77
2022/06/25 18:31:54;;;;;;;2.25;2.15;;;24.20;99.90;;;;;;5095798;28;20206;-77
2022/06/25 18:34:21;;;;;;;2.30;2.10;;;24.00;99.90;;;;;;5094499;28;20527;-77
2022/06/25 18:36:46;;;;;;;2.45;2.25;;;23.90;99.90;;;;;;5095910;28;20225;-77
2022/06/25 18:39:12;;;;;;;2.95;2.17;;;23.80;99.90;;;;;;5095710;28;20159;-77
2022/06/25 18:41:41;;;;;;;2.50;2.10;;;23.60;99.90;;;;;;5095571;28;20171;-77
2022/06/25 18:44:06;;;;;;;4.47;2.50;;;23.60;99.90;;;;;;5095537;28;20492;-77
2022/06/25 18:46:32;;;;;;;2.22;2.13;;;23.50;99.90;;;;;;5095311;28;20183;-77
